sensor_id;sensor_type;location;lat;lon;timestamp;P1;durP1;ratioP1;P2;durP2;ratioP2
1000;SDS011;489;47.806;12.858;2023-05-29T00:00:58;4.43;;;4.03;;
1000;SDS011;489;47.806;12.858;2023-05-29T00:03:00;4.23;;;3.60;;
1000;SDS011;489;47.806;12.858;2023-05-29T00:05:05;4.77;;;4.23;;
1000;SDS011;489;47.806;12.858;2023-05-29T00:07:09;5.30;;;3.80;;
1000;SDS011;489;47.806;12.858;2023-05-29T00:09:11;4.60;;;4.10;;
1000;SDS011;489;47.806;12.858;2023-05-29T00:11:13;4.53;;;4.13;;
1000;SDS011;489;47.806;12.858;2023-05-29T00:13:15;5.67;;;4.10;;
1000;SDS011;489;47.806;12.858;2023-05-29T00:15:17;6.17;;;4.47;;
1000;SDS011;489;47.806;12.858;2023-05-29T00:17:19;5.20;;;4.20;;
1000;SDS011;489;47.806;12.858;2023-05-29T00:19:21;4.97;;;4.20;;
1000;SDS011;489;47.806;12.858;2023-05-29T00:21:25;4.20;;;3.83;;
1000;SDS011;489;47.806;12.858;2023-05-29T00:23:28;4.50;;;4.10;;
1000;SDS011;489;47.806;12.858;2023-05-29T00:25:30;5.67;;;4.00;;
1000;SDS011;489;47.806;12.858;2023-05-29T00:27:32;5.33;;;4.93;;
1000;SDS011;489;47.806;12.858;2023-05-29T00:29:35;5.00;;;4.57;;
1000;SDS011;489;47.806;12.858;2023-05-29T00:31:38;4.83;;;4.00;;
1000;SDS011;489;47.806;12.858;2023-05-29T00:33:40;4.23;;;3.80;;
1000;SDS011;489;47.806;12.858;2023-05-29T00:35:42;5.17;;;4.23;;
1000;SDS011;489;47.806;12.858;2023-05-29T00:37:44;5.03;;;3.63;;
1000;SDS011;489;47.806;12.858;2023-05-29T00:39:47;6.07;;;4.73;;
1000;SDS011;489;47.806;12.858;2023-05-29T00:41:53;5.23;;;3.97;;
1000;SDS011;489;47.806;12.858;2023-05-29T00:43:56;4.27;;;3.67;;
1000;SDS011;489;47.806;12.858;2023-05-29T00:45:58;4.30;;;3.90;;
1000;SDS011;489;47.806;12.858;2023-05-29T00:48:00;4.97;;;4.37;;
1000;SDS011;489;47.806;12.858;2023-05-29T00:50:02;4.90;;;3.77;;
1000;SDS011;489;47.806;12.858;2023-05-29T00:52:04;4.10;;;3.70;;
1000;SDS011;489;47.806;12.858;2023-05-29T00:54:10;5.47;;;4.03;;
1000;SDS011;489;47.806;12.858;2023-05-29T00:56:14;5.30;;;4.80;;
1000;SDS011;489;47.806;12.858;2023-05-29T00:58:16;4.53;;;3.80;;
1000;SDS011;489;47.806;12.858;2023-05-29T01:00:18;4.50;;;4.10;;
1000;SDS011;489;47.806;12.858;2023-05-29T01:02:21;4.97;;;4.10;;
1000;SDS011;489;47.806;12.858;2023-05-29T01:04:23;4.83;;;4.27;;
1000;SDS011;489;47.806;12.858;2023-05-29T01:06:27;4.40;;;4.07;;
1000;SDS011;489;47.806;12.858;2023-05-29T01:08:48;4.93;;;3.90;;
1000;SDS011;489;47.806;12.858;2023-05-29T01:10:50;5.43;;;3.73;;
1000;SDS011;489;47.806;12.858;2023-05-29T01:12:56;4.13;;;3.73;;
1000;SDS011;489;47.806;12.858;2023-05-29T01:17:24;3.90;;;3.60;;
1000;SDS011;489;47.806;12.858;2023-05-29T01:19:35;4.73;;;3.90;;
1000;SDS011;489;47.806;12.858;2023-05-29T01:21:55;5.43;;;4.03;;
1000;SDS011;489;47.806;12.858;2023-05-29T01:24:02;5.60;;;3.63;;
1000;SDS011;489;47.806;12.858;2023-05-29T01:26:12;4.07;;;3.67;;
1000;SDS011;489;47.806;12.858;2023-05-29T01:28:25;4.40;;;3.93;;
1000;SDS011;489;47.806;12.858;2023-05-29T01:30:28;4.50;;;3.90;;
1000;SDS011;489;47.806;12.858;2023-05-29T01:32:33;6.07;;;4.37;;
1000;SDS011;489;47.806;12.858;2023-05-29T01:34:35;5.23;;;4.23;;
1000;SDS011;489;47.806;12.858;2023-05-29T01:36:37;4.40;;;4.00;;
1000;SDS011;489;47.806;12.858;2023-05-29T01:38:39;4.37;;;3.97;;
1000;SDS011;489;47.806;12.858;2023-05-29T01:40:41;4.53;;;3.93;;
1000;SDS011;489;47.806;12.858;2023-05-29T01:42:43;7.03;;;4.40;;
1000;SDS011;489;47.806;12.858;2023-05-29T01:44:46;4.30;;;3.90;;
1000;SDS011;489;47.806;12.858;2023-05-29T01:46:49;5.27;;;4.17;;
1000;SDS011;489;47.806;12.858;2023-05-29T01:48:52;4.40;;;3.90;;
1000;SDS011;489;47.806;12.858;2023-05-29T01:50:56;5.60;;;4.23;;
1000;SDS011;489;47.806;12.858;2023-05-29T01:52:59;4.00;;;3.60;;
1000;SDS011;489;47.806;12.858;2023-05-29T01:55:02;5.50;;;4.37;;
1000;SDS011;489;47.806;12.858;2023-05-29T01:57:04;4.73;;;4.27;;
1000;SDS011;489;47.806;12.858;2023-05-29T01:59:08;5.13;;;4.50;;
1000;SDS011;489;47.806;12.858;2023-05-29T02:01:12;4.77;;;3.70;;
1000;SDS011;489;47.806;12.858;2023-05-29T02:03:14;4.57;;;3.80;;
1000;SDS011;489;47.806;12.858;2023-05-29T02:05:16;4.47;;;4.07;;
1000;SDS011;489;47.806;12.858;2023-05-29T02:07:19;3.90;;;3.50;;
1000;SDS011;489;47.806;12.858;2023-05-29T02:09:21;4.60;;;4.20;;
1000;SDS011;489;47.806;12.858;2023-05-29T02:11:24;4.40;;;3.83;;
1000;SDS011;489;47.806;12.858;2023-05-29T02:13:26;4.40;;;3.80;;
1000;SDS011;489;47.806;12.858;2023-05-29T02:15:28;4.40;;;4.00;;
1000;SDS011;489;47.806;12.858;2023-05-29T02:17:32;5.63;;;4.30;;
1000;SDS011;489;47.806;12.858;2023-05-29T02:19:35;7.43;;;3.60;;
1000;SDS011;489;47.806;12.858;2023-05-29T02:21:37;5.27;;;4.43;;
1000;SDS011;489;47.806;12.858;2023-05-29T02:23:40;4.30;;;3.90;;
1000;SDS011;489;47.806;12.858;2023-05-29T02:25:42;4.03;;;3.63;;
1000;SDS011;489;47.806;12.858;2023-05-29T02:27:44;4.93;;;3.80;;
1000;SDS011;489;47.806;12.858;2023-05-29T02:29:47;4.63;;;4.10;;
1000;SDS011;489;47.806;12.858;2023-05-29T02:31:49;4.80;;;3.90;;
1000;SDS011;489;47.806;12.858;2023-05-29T02:33:53;5.40;;;4.07;;
1000;SDS011;489;47.806;12.858;2023-05-29T02:35:56;4.93;;;4.07;;
1000;SDS011;489;47.806;12.858;2023-05-29T02:37:58;5.37;;;3.90;;
1000;SDS011;489;47.806;12.858;2023-05-29T02:40:00;5.30;;;3.80;;
1000;SDS011;489;47.806;12.858;2023-05-29T02:42:02;4.43;;;4.00;;
1000;SDS011;489;47.806;12.858;2023-05-29T02:44:05;6.17;;;3.83;;
1000;SDS011;489;47.806;12.858;2023-05-29T02:46:07;4.57;;;3.70;;
1000;SDS011;489;47.806;12.858;2023-05-29T02:48:09;5.60;;;4.17;;
1000;SDS011;489;47.806;12.858;2023-05-29T02:50:12;4.67;;;3.67;;
1000;SDS011;489;47.806;12.858;2023-05-29T02:52:15;4.57;;;4.10;;
1000;SDS011;489;47.806;12.858;2023-05-29T02:54:17;5.03;;;4.10;;
1000;SDS011;489;47.806;12.858;2023-05-29T02:56:20;3.93;;;3.60;;
1000;SDS011;489;47.806;12.858;2023-05-29T02:58:24;4.57;;;4.10;;
1000;SDS011;489;47.806;12.858;2023-05-29T03:00:27;5.10;;;4.20;;
1000;SDS011;489;47.806;12.858;2023-05-29T03:02:32;4.30;;;3.90;;
1000;SDS011;489;47.806;12.858;2023-05-29T03:04:35;4.80;;;4.20;;
1000;SDS011;489;47.806;12.858;2023-05-29T03:06:38;4.13;;;3.73;;
1000;SDS011;489;47.806;12.858;2023-05-29T03:08:40;4.37;;;3.70;;
1000;SDS011;489;47.806;12.858;2023-05-29T03:10:45;4.60;;;4.00;;
1000;SDS011;489;47.806;12.858;2023-05-29T03:12:48;3.83;;;3.53;;
1000;SDS011;489;47.806;12.858;2023-05-29T03:14:51;5.00;;;4.30;;
1000;SDS011;489;47.806;12.858;2023-05-29T03:16:54;6.13;;;4.73;;
1000;SDS011;489;47.806;12.858;2023-05-29T03:18:57;5.40;;;4.50;;
1000;SDS011;489;47.806;12.858;2023-05-29T03:20:59;4.50;;;4.10;;
1000;SDS011;489;47.806;12.858;2023-05-29T03:23:03;5.50;;;4.63;;
1000;SDS011;489;47.806;12.858;2023-05-29T03:25:07;5.23;;;4.60;;
1000;SDS011;489;47.806;12.858;2023-05-29T03:27:09;4.30;;;3.93;;
1000;SDS011;489;47.806;12.858;2023-05-29T03:29:12;4.63;;;3.93;;
1000;SDS011;489;47.806;12.858;2023-05-29T03:31:15;4.90;;;4.00;;
1000;SDS011;489;47.806;12.858;2023-05-29T03:33:20;4.90;;;4.40;;
1000;SDS011;489;47.806;12.858;2023-05-29T03:35:48;4.40;;;4.00;;
1000;SDS011;489;47.806;12.858;2023-05-29T03:37:51;4.27;;;3.87;;
1000;SDS011;489;47.806;12.858;2023-05-29T03:39:54;4.73;;;4.20;;
1000;SDS011;489;47.806;12.858;2023-05-29T03:41:57;5.10;;;4.17;;
1000;SDS011;489;47.806;12.858;2023-05-29T03:43:59;4.67;;;3.87;;
1000;SDS011;489;47.806;12.858;2023-05-29T03:46:02;4.50;;;4.00;;
1000;SDS011;489;47.806;12.858;2023-05-29T03:48:05;4.47;;;3.87;;
1000;SDS011;489;47.806;12.858;2023-05-29T03:50:07;4.93;;;4.00;;
1000;SDS011;489;47.806;12.858;2023-05-29T03:52:10;4.80;;;4.30;;
1000;SDS011;489;47.806;12.858;2023-05-29T03:54:13;6.63;;;4.60;;
1000;SDS011;489;47.806;12.858;2023-05-29T03:56:16;4.70;;;4.13;;
1000;SDS011;489;47.806;12.858;2023-05-29T03:58:18;5.20;;;4.67;;
1000;SDS011;489;47.806;12.858;2023-05-29T04:00:21;5.00;;;4.50;;
1000;SDS011;489;47.806;12.858;2023-05-29T04:02:24;4.70;;;4.20;;
1000;SDS011;489;47.806;12.858;2023-05-29T04:04:26;4.90;;;4.13;;
1000;SDS011;489;47.806;12.858;2023-05-29T04:06:28;4.60;;;4.20;;
1000;SDS011;489;47.806;12.858;2023-05-29T04:08:31;4.80;;;4.10;;
1000;SDS011;489;47.806;12.858;2023-05-29T04:10:33;6.53;;;4.40;;
1000;SDS011;489;47.806;12.858;2023-05-29T04:12:39;4.60;;;4.10;;
1000;SDS011;489;47.806;12.858;2023-05-29T04:14:41;5.37;;;4.43;;
1000;SDS011;489;47.806;12.858;2023-05-29T04:16:43;5.50;;;4.60;;
1000;SDS011;489;47.806;12.858;2023-05-29T04:18:45;5.47;;;4.97;;
1000;SDS011;489;47.806;12.858;2023-05-29T04:20:47;4.13;;;3.67;;
1000;SDS011;489;47.806;12.858;2023-05-29T04:22:50;4.47;;;4.07;;
1000;SDS011;489;47.806;12.858;2023-05-29T04:24:53;4.70;;;4.20;;
1000;SDS011;489;47.806;12.858;2023-05-29T04:26:55;4.60;;;4.20;;
1000;SDS011;489;47.806;12.858;2023-05-29T04:28:58;5.70;;;4.40;;
1000;SDS011;489;47.806;12.858;2023-05-29T04:31:00;4.73;;;4.23;;
1000;SDS011;489;47.806;12.858;2023-05-29T04:33:03;5.20;;;4.10;;
1000;SDS011;489;47.806;12.858;2023-05-29T04:35:06;6.90;;;4.47;;
1000;SDS011;489;47.806;12.858;2023-05-29T04:37:15;6.77;;;4.57;;
1000;SDS011;489;47.806;12.858;2023-05-29T04:39:17;4.80;;;4.20;;
1000;SDS011;489;47.806;12.858;2023-05-29T04:41:22;6.20;;;4.43;;
1000;SDS011;489;47.806;12.858;2023-05-29T04:43:30;8.27;;;4.50;;
1000;SDS011;489;47.806;12.858;2023-05-29T04:45:38;5.00;;;4.50;;
1000;SDS011;489;47.806;12.858;2023-05-29T04:47:42;5.93;;;4.93;;
1000;SDS011;489;47.806;12.858;2023-05-29T04:49:46;8.03;;;5.30;;
1000;SDS011;489;47.806;12.858;2023-05-29T04:51:50;5.03;;;4.33;;
1000;SDS011;489;47.806;12.858;2023-05-29T04:53:53;4.90;;;4.40;;
1000;SDS011;489;47.806;12.858;2023-05-29T04:55:56;5.27;;;4.63;;
1000;SDS011;489;47.806;12.858;2023-05-29T04:57:58;6.87;;;4.83;;
1000;SDS011;489;47.806;12.858;2023-05-29T05:00:00;5.20;;;4.80;;
1000;SDS011;489;47.806;12.858;2023-05-29T05:02:11;7.50;;;5.50;;
1000;SDS011;489;47.806;12.858;2023-05-29T05:04:13;5.50;;;4.63;;
1000;SDS011;489;47.806;12.858;2023-05-29T05:06:15;5.03;;;4.40;;
1000;SDS011;489;47.806;12.858;2023-05-29T05:08:17;5.73;;;4.97;;
1000;SDS011;489;47.806;12.858;2023-05-29T05:10:19;7.20;;;4.77;;
1000;SDS011;489;47.806;12.858;2023-05-29T05:12:21;5.87;;;4.40;;
1000;SDS011;489;47.806;12.858;2023-05-29T05:14:23;5.83;;;5.23;;
1000;SDS011;489;47.806;12.858;2023-05-29T05:16:26;5.77;;;5.17;;
1000;SDS011;489;47.806;12.858;2023-05-29T05:18:30;5.57;;;4.60;;
1000;SDS011;489;47.806;12.858;2023-05-29T05:20:37;4.83;;;4.37;;
1000;SDS011;489;47.806;12.858;2023-05-29T05:22:39;5.83;;;5.20;;
1000;SDS011;489;47.806;12.858;2023-05-29T05:24:41;6.00;;;5.40;;
1000;SDS011;489;47.806;12.858;2023-05-29T05:26:43;5.87;;;4.80;;
1000;SDS011;489;47.806;12.858;2023-05-29T05:28:45;7.60;;;5.13;;
1000;SDS011;489;47.806;12.858;2023-05-29T05:30:48;5.87;;;5.10;;
1000;SDS011;489;47.806;12.858;2023-05-29T05:32:50;7.43;;;5.07;;
1000;SDS011;489;47.806;12.858;2023-05-29T05:34:53;5.40;;;4.90;;
1000;SDS011;489;47.806;12.858;2023-05-29T05:36:56;6.20;;;5.37;;
1000;SDS011;489;47.806;12.858;2023-05-29T05:39:01;8.70;;;5.07;;
1000;SDS011;489;47.806;12.858;2023-05-29T05:41:03;8.37;;;6.10;;
1000;SDS011;489;47.806;12.858;2023-05-29T05:43:06;5.63;;;5.07;;
1000;SDS011;489;47.806;12.858;2023-05-29T05:45:28;5.67;;;5.00;;
1000;SDS011;489;47.806;12.858;2023-05-29T05:47:30;7.10;;;5.50;;
1000;SDS011;489;47.806;12.858;2023-05-29T05:49:33;6.57;;;5.50;;
1000;SDS011;489;47.806;12.858;2023-05-29T05:51:36;5.30;;;4.57;;
1000;SDS011;489;47.806;12.858;2023-05-29T05:53:39;6.57;;;4.60;;
1000;SDS011;489;47.806;12.858;2023-05-29T05:55:41;8.73;;;6.60;;
1000;SDS011;489;47.806;12.858;2023-05-29T05:57:43;5.73;;;4.77;;
1000;SDS011;489;47.806;12.858;2023-05-29T05:59:47;5.67;;;5.17;;
1000;SDS011;489;47.806;12.858;2023-05-29T06:01:49;7.07;;;5.20;;
1000;SDS011;489;47.806;12.858;2023-05-29T06:03:51;5.40;;;4.90;;
1000;SDS011;489;47.806;12.858;2023-05-29T06:05:54;5.87;;;5.23;;
1000;SDS011;489;47.806;12.858;2023-05-29T06:07:57;6.97;;;6.00;;
1000;SDS011;489;47.806;12.858;2023-05-29T06:09:59;5.50;;;5.00;;
1000;SDS011;489;47.806;12.858;2023-05-29T06:12:01;6.97;;;5.83;;
1000;SDS011;489;47.806;12.858;2023-05-29T06:14:23;5.47;;;4.87;;
1000;SDS011;489;47.806;12.858;2023-05-29T06:16:25;6.03;;;5.37;;
1000;SDS011;489;47.806;12.858;2023-05-29T06:18:27;5.23;;;4.77;;
1000;SDS011;489;47.806;12.858;2023-05-29T06:20:30;5.20;;;4.70;;
1000;SDS011;489;47.806;12.858;2023-05-29T06:22:32;5.30;;;4.80;;
1000;SDS011;489;47.806;12.858;2023-05-29T06:24:36;8.50;;;5.03;;
1000;SDS011;489;47.806;12.858;2023-05-29T06:26:39;5.30;;;4.90;;
1000;SDS011;489;47.806;12.858;2023-05-29T06:28:43;6.90;;;5.40;;
1000;SDS011;489;47.806;12.858;2023-05-29T06:30:46;6.90;;;5.40;;
1000;SDS011;489;47.806;12.858;2023-05-29T06:32:48;6.17;;;5.30;;
1000;SDS011;489;47.806;12.858;2023-05-29T06:34:50;6.27;;;4.97;;
1000;SDS011;489;47.806;12.858;2023-05-29T06:36:52;7.23;;;6.07;;
1000;SDS011;489;47.806;12.858;2023-05-29T06:38:54;5.97;;;4.93;;
1000;SDS011;489;47.806;12.858;2023-05-29T06:40:58;5.97;;;4.90;;
1000;SDS011;489;47.806;12.858;2023-05-29T06:43:01;4.87;;;4.23;;
1000;SDS011;489;47.806;12.858;2023-05-29T06:45:12;5.50;;;4.90;;
1000;SDS011;489;47.806;12.858;2023-05-29T06:47:14;6.73;;;5.30;;
1000;SDS011;489;47.806;12.858;2023-05-29T06:49:16;5.77;;;5.23;;
1000;SDS011;489;47.806;12.858;2023-05-29T06:51:18;7.30;;;6.03;;
1000;SDS011;489;47.806;12.858;2023-05-29T06:53:29;6.47;;;5.30;;
1000;SDS011;489;47.806;12.858;2023-05-29T06:55:31;6.50;;;5.50;;
1000;SDS011;489;47.806;12.858;2023-05-29T06:57:35;5.67;;;5.07;;
1000;SDS011;489;47.806;12.858;2023-05-29T06:59:37;6.83;;;4.90;;
1000;SDS011;489;47.806;12.858;2023-05-29T07:01:40;5.90;;;5.13;;
1000;SDS011;489;47.806;12.858;2023-05-29T07:03:42;6.13;;;5.07;;
1000;SDS011;489;47.806;12.858;2023-05-29T07:05:44;5.60;;;4.63;;
1000;SDS011;489;47.806;12.858;2023-05-29T07:07:46;7.93;;;6.23;;
1000;SDS011;489;47.806;12.858;2023-05-29T07:09:49;5.97;;;5.37;;
1000;SDS011;489;47.806;12.858;2023-05-29T07:11:51;6.73;;;5.17;;
1000;SDS011;489;47.806;12.858;2023-05-29T07:13:55;5.67;;;4.77;;
1000;SDS011;489;47.806;12.858;2023-05-29T07:15:59;5.57;;;4.33;;
1000;SDS011;489;47.806;12.858;2023-05-29T07:18:07;5.90;;;4.87;;
1000;SDS011;489;47.806;12.858;2023-05-29T07:20:09;4.80;;;4.27;;
1000;SDS011;489;47.806;12.858;2023-05-29T07:22:12;6.13;;;5.13;;
1000;SDS011;489;47.806;12.858;2023-05-29T07:24:14;6.50;;;5.20;;
1000;SDS011;489;47.806;12.858;2023-05-29T07:26:16;7.70;;;5.00;;
1000;SDS011;489;47.806;12.858;2023-05-29T07:28:18;8.07;;;5.20;;
1000;SDS011;489;47.806;12.858;2023-05-29T07:30:22;5.43;;;4.90;;
1000;SDS011;489;47.806;12.858;2023-05-29T07:32:25;5.60;;;5.00;;
1000;SDS011;489;47.806;12.858;2023-05-29T07:34:27;5.97;;;5.37;;
1000;SDS011;489;47.806;12.858;2023-05-29T07:36:30;7.03;;;5.20;;
1000;SDS011;489;47.806;12.858;2023-05-29T07:38:34;5.53;;;4.73;;
1000;SDS011;489;47.806;12.858;2023-05-29T07:40:36;5.63;;;4.93;;
1000;SDS011;489;47.806;12.858;2023-05-29T07:42:45;5.23;;;4.63;;
1000;SDS011;489;47.806;12.858;2023-05-29T07:44:47;6.63;;;4.43;;
1000;SDS011;489;47.806;12.858;2023-05-29T07:46:54;5.50;;;5.00;;
1000;SDS011;489;47.806;12.858;2023-05-29T07:49:13;4.73;;;4.27;;
1000;SDS011;489;47.806;12.858;2023-05-29T07:51:15;5.07;;;4.57;;
1000;SDS011;489;47.806;12.858;2023-05-29T07:53:20;4.90;;;4.03;;
1000;SDS011;489;47.806;12.858;2023-05-29T07:55:23;4.40;;;3.73;;
1000;SDS011;489;47.806;12.858;2023-05-29T07:57:25;4.93;;;4.40;;
1000;SDS011;489;47.806;12.858;2023-05-29T07:59:29;4.47;;;4.07;;
1000;SDS011;489;47.806;12.858;2023-05-29T08:01:33;5.63;;;4.63;;
1000;SDS011;489;47.806;12.858;2023-05-29T08:03:37;4.43;;;3.67;;
1000;SDS011;489;47.806;12.858;2023-05-29T08:05:48;3.90;;;3.33;;
1000;SDS011;489;47.806;12.858;2023-05-29T08:07:52;5.30;;;4.43;;
1000;SDS011;489;47.806;12.858;2023-05-29T08:09:54;4.70;;;3.80;;
1000;SDS011;489;47.806;12.858;2023-05-29T08:11:56;5.10;;;4.47;;
1000;SDS011;489;47.806;12.858;2023-05-29T08:13:58;4.00;;;3.60;;
1000;SDS011;489;47.806;12.858;2023-05-29T08:16:01;4.90;;;4.17;;
1000;SDS011;489;47.806;12.858;2023-05-29T08:18:04;4.73;;;4.03;;
1000;SDS011;489;47.806;12.858;2023-05-29T08:20:08;5.17;;;4.47;;
1000;SDS011;489;47.806;12.858;2023-05-29T08:22:12;4.23;;;3.60;;
1000;SDS011;489;47.806;12.858;2023-05-29T08:24:15;5.23;;;4.17;;
1000;SDS011;489;47.806;12.858;2023-05-29T08:26:17;3.97;;;3.57;;
1000;SDS011;489;47.806;12.858;2023-05-29T08:28:20;5.17;;;3.80;;
1000;SDS011;489;47.806;12.858;2023-05-29T08:30:22;4.50;;;4.10;;
1000;SDS011;489;47.806;12.858;2023-05-29T08:32:25;4.37;;;3.80;;
1000;SDS011;489;47.806;12.858;2023-05-29T08:34:27;3.80;;;3.40;;
1000;SDS011;489;47.806;12.858;2023-05-29T08:36:30;4.37;;;3.97;;
1000;SDS011;489;47.806;12.858;2023-05-29T08:38:33;4.57;;;3.80;;
1000;SDS011;489;47.806;12.858;2023-05-29T08:40:35;5.40;;;4.20;;
1000;SDS011;489;47.806;12.858;2023-05-29T08:42:39;7.70;;;4.50;;
1000;SDS011;489;47.806;12.858;2023-05-29T08:44:44;4.73;;;4.33;;
1000;SDS011;489;47.806;12.858;2023-05-29T08:46:49;3.70;;;3.40;;
1000;SDS011;489;47.806;12.858;2023-05-29T08:48:56;3.50;;;3.20;;
1000;SDS011;489;47.806;12.858;2023-05-29T08:51:00;5.07;;;3.80;;
1000;SDS011;489;47.806;12.858;2023-05-29T08:53:05;5.20;;;4.50;;
1000;SDS011;489;47.806;12.858;2023-05-29T08:55:07;5.03;;;4.50;;
1000;SDS011;489;47.806;12.858;2023-05-29T08:57:10;4.40;;;4.00;;
1000;SDS011;489;47.806;12.858;2023-05-29T08:59:12;4.20;;;3.80;;
1000;SDS011;489;47.806;12.858;2023-05-29T09:01:14;5.67;;;4.13;;
1000;SDS011;489;47.806;12.858;2023-05-29T09:03:17;5.07;;;3.63;;
1000;SDS011;489;47.806;12.858;2023-05-29T09:05:21;5.47;;;4.10;;
1000;SDS011;489;47.806;12.858;2023-05-29T09:07:23;4.77;;;4.30;;
1000;SDS011;489;47.806;12.858;2023-05-29T09:09:27;5.57;;;4.30;;
1000;SDS011;489;47.806;12.858;2023-05-29T09:11:32;4.33;;;3.90;;
1000;SDS011;489;47.806;12.858;2023-05-29T09:13:34;5.27;;;3.73;;
1000;SDS011;489;47.806;12.858;2023-05-29T09:15:36;4.27;;;3.87;;
1000;SDS011;489;47.806;12.858;2023-05-29T09:17:40;5.23;;;4.23;;
1000;SDS011;489;47.806;12.858;2023-05-29T09:19:42;3.90;;;3.47;;
1000;SDS011;489;47.806;12.858;2023-05-29T09:21:45;4.30;;;3.73;;
1000;SDS011;489;47.806;12.858;2023-05-29T09:23:47;5.13;;;4.00;;
1000;SDS011;489;47.806;12.858;2023-05-29T09:25:54;5.93;;;4.60;;
1000;SDS011;489;47.806;12.858;2023-05-29T09:27:58;4.00;;;3.60;;
1000;SDS011;489;47.806;12.858;2023-05-29T09:30:00;5.17;;;4.67;;
1000;SDS011;489;47.806;12.858;2023-05-29T09:32:03;4.40;;;4.00;;
1000;SDS011;489;47.806;12.858;2023-05-29T09:34:09;4.10;;;3.63;;
1000;SDS011;489;47.806;12.858;2023-05-29T09:36:18;4.50;;;3.80;;
1000;SDS011;489;47.806;12.858;2023-05-29T09:38:21;7.13;;;5.23;;
1000;SDS011;489;47.806;12.858;2023-05-29T09:40:23;6.37;;;3.20;;
1000;SDS011;489;47.806;12.858;2023-05-29T09:42:26;4.73;;;3.77;;
1000;SDS011;489;47.806;12.858;2023-05-29T09:44:28;5.43;;;4.20;;
1000;SDS011;489;47.806;12.858;2023-05-29T09:46:33;6.20;;;5.30;;
1000;SDS011;489;47.806;12.858;2023-05-29T09:48:35;5.10;;;4.20;;
1000;SDS011;489;47.806;12.858;2023-05-29T09:50:37;4.33;;;3.60;;
1000;SDS011;489;47.806;12.858;2023-05-29T09:52:42;4.23;;;3.83;;
1000;SDS011;489;47.806;12.858;2023-05-29T09:55:06;5.37;;;4.90;;
1000;SDS011;489;47.806;12.858;2023-05-29T09:57:09;7.00;;;5.60;;
1000;SDS011;489;47.806;12.858;2023-05-29T09:59:13;5.80;;;5.27;;
1000;SDS011;489;47.806;12.858;2023-05-29T10:01:15;5.23;;;4.50;;
1000;SDS011;489;47.806;12.858;2023-05-29T10:03:17;4.47;;;4.07;;
1000;SDS011;489;47.806;12.858;2023-05-29T10:05:21;5.43;;;4.47;;
1000;SDS011;489;47.806;12.858;2023-05-29T10:07:45;5.33;;;4.20;;
1000;SDS011;489;47.806;12.858;2023-05-29T10:09:49;4.20;;;3.80;;
1000;SDS011;489;47.806;12.858;2023-05-29T10:11:55;5.50;;;4.60;;
1000;SDS011;489;47.806;12.858;2023-05-29T10:14:00;4.83;;;4.30;;
1000;SDS011;489;47.806;12.858;2023-05-29T10:16:06;6.13;;;4.13;;
1000;SDS011;489;47.806;12.858;2023-05-29T10:18:12;5.43;;;4.93;;
1000;SDS011;489;47.806;12.858;2023-05-29T10:20:15;4.53;;;3.70;;
1000;SDS011;489;47.806;12.858;2023-05-29T10:22:19;4.67;;;3.90;;
1000;SDS011;489;47.806;12.858;2023-05-29T10:24:22;6.07;;;4.30;;
1000;SDS011;489;47.806;12.858;2023-05-29T10:26:24;4.70;;;4.27;;
1000;SDS011;489;47.806;12.858;2023-05-29T10:28:27;5.00;;;4.50;;
1000;SDS011;489;47.806;12.858;2023-05-29T10:30:30;6.13;;;3.87;;
1000;SDS011;489;47.806;12.858;2023-05-29T10:32:39;4.80;;;4.23;;
1000;SDS011;489;47.806;12.858;2023-05-29T10:34:47;4.53;;;3.93;;
1000;SDS011;489;47.806;12.858;2023-05-29T10:36:54;4.10;;;3.67;;
1000;SDS011;489;47.806;12.858;2023-05-29T10:39:00;5.67;;;4.10;;
1000;SDS011;489;47.806;12.858;2023-05-29T10:43:40;3.93;;;3.53;;
1000;SDS011;489;47.806;12.858;2023-05-29T10:45:50;4.50;;;4.00;;
1000;SDS011;489;47.806;12.858;2023-05-29T10:47:56;4.90;;;4.23;;
1000;SDS011;489;47.806;12.858;2023-05-29T10:50:38;5.90;;;4.10;;
1000;SDS011;489;47.806;12.858;2023-05-29T10:52:45;4.10;;;3.70;;
1000;SDS011;489;47.806;12.858;2023-05-29T10:54:51;5.90;;;4.60;;
1000;SDS011;489;47.806;12.858;2023-05-29T10:56:55;4.17;;;3.33;;
1000;SDS011;489;47.806;12.858;2023-05-29T10:58:58;5.83;;;4.40;;
1000;SDS011;489;47.806;12.858;2023-05-29T11:01:02;5.20;;;3.90;;
1000;SDS011;489;47.806;12.858;2023-05-29T11:03:04;3.73;;;3.30;;
1000;SDS011;489;47.806;12.858;2023-05-29T11:07:34;4.03;;;3.63;;
1000;SDS011;489;47.806;12.858;2023-05-29T11:09:37;4.20;;;3.80;;
1000;SDS011;489;47.806;12.858;2023-05-29T11:11:40;4.37;;;3.80;;
1000;SDS011;489;47.806;12.858;2023-05-29T11:13:51;4.43;;;3.67;;
1000;SDS011;489;47.806;12.858;2023-05-29T11:16:10;4.17;;;3.77;;
1000;SDS011;489;47.806;12.858;2023-05-29T11:18:13;3.83;;;3.53;;
1000;SDS011;489;47.806;12.858;2023-05-29T11:20:28;3.80;;;3.50;;
1000;SDS011;489;47.806;12.858;2023-05-29T11:22:46;4.30;;;3.83;;
1000;SDS011;489;47.806;12.858;2023-05-29T11:24:57;4.53;;;4.13;;
1000;SDS011;489;47.806;12.858;2023-05-29T11:26:59;3.47;;;3.17;;
1000;SDS011;489;47.806;12.858;2023-05-29T11:29:06;4.53;;;3.80;;
1000;SDS011;489;47.806;12.858;2023-05-29T11:31:11;4.30;;;3.90;;
1000;SDS011;489;47.806;12.858;2023-05-29T11:33:17;5.70;;;4.30;;
1000;SDS011;489;47.806;12.858;2023-05-29T11:35:29;4.13;;;3.73;;
1000;SDS011;489;47.806;12.858;2023-05-29T11:37:32;4.23;;;3.33;;
1000;SDS011;489;47.806;12.858;2023-05-29T11:39:36;4.90;;;3.83;;
1000;SDS011;489;47.806;12.858;2023-05-29T11:41:39;4.23;;;3.70;;
1000;SDS011;489;47.806;12.858;2023-05-29T11:43:40;4.20;;;3.77;;
1000;SDS011;489;47.806;12.858;2023-05-29T11:45:42;4.30;;;3.90;;
1000;SDS011;489;47.806;12.858;2023-05-29T11:47:51;3.27;;;2.93;;
1000;SDS011;489;47.806;12.858;2023-05-29T11:49:54;3.50;;;3.20;;
1000;SDS011;489;47.806;12.858;2023-05-29T11:52:04;6.30;;;4.07;;
1000;SDS011;489;47.806;12.858;2023-05-29T11:54:07;5.83;;;3.53;;
1000;SDS011;489;47.806;12.858;2023-05-29T11:56:12;4.53;;;4.13;;
1000;SDS011;489;47.806;12.858;2023-05-29T11:58:14;3.40;;;3.10;;
1000;SDS011;489;47.806;12.858;2023-05-29T12:00:17;4.80;;;3.63;;
1000;SDS011;489;47.806;12.858;2023-05-29T12:02:20;3.47;;;3.17;;
1000;SDS011;489;47.806;12.858;2023-05-29T12:04:23;3.93;;;3.53;;
1000;SDS011;489;47.806;12.858;2023-05-29T12:06:31;3.67;;;3.37;;
1000;SDS011;489;47.806;12.858;2023-05-29T12:08:34;4.07;;;3.27;;
1000;SDS011;489;47.806;12.858;2023-05-29T12:10:37;5.97;;;3.90;;
1000;SDS011;489;47.806;12.858;2023-05-29T12:12:40;3.87;;;3.47;;
1000;SDS011;489;47.806;12.858;2023-05-29T12:14:42;3.97;;;3.57;;
1000;SDS011;489;47.806;12.858;2023-05-29T12:16:44;3.70;;;3.20;;
1000;SDS011;489;47.806;12.858;2023-05-29T12:18:46;5.57;;;3.37;;
1000;SDS011;489;47.806;12.858;2023-05-29T12:20:48;6.13;;;4.03;;
1000;SDS011;489;47.806;12.858;2023-05-29T12:22:50;3.10;;;2.80;;
1000;SDS011;489;47.806;12.858;2023-05-29T12:24:52;4.50;;;3.80;;
1000;SDS011;489;47.806;12.858;2023-05-29T12:26:54;4.30;;;3.63;;
1000;SDS011;489;47.806;12.858;2023-05-29T12:29:01;6.97;;;4.10;;
1000;SDS011;489;47.806;12.858;2023-05-29T12:31:04;3.47;;;3.17;;
1000;SDS011;489;47.806;12.858;2023-05-29T12:33:06;4.30;;;3.90;;
1000;SDS011;489;47.806;12.858;2023-05-29T12:35:10;4.30;;;3.77;;
1000;SDS011;489;47.806;12.858;2023-05-29T12:37:13;4.53;;;3.20;;
1000;SDS011;489;47.806;12.858;2023-05-29T12:39:15;3.57;;;3.27;;
1000;SDS011;489;47.806;12.858;2023-05-29T12:41:22;3.30;;;3.00;;
1000;SDS011;489;47.806;12.858;2023-05-29T12:43:26;4.70;;;3.73;;
1000;SDS011;489;47.806;12.858;2023-05-29T12:45:30;3.03;;;2.77;;
1000;SDS011;489;47.806;12.858;2023-05-29T12:47:33;4.57;;;4.10;;
1000;SDS011;489;47.806;12.858;2023-05-29T12:49:35;3.80;;;3.40;;
1000;SDS011;489;47.806;12.858;2023-05-29T12:51:39;3.53;;;3.23;;
1000;SDS011;489;47.806;12.858;2023-05-29T12:53:42;3.30;;;3.00;;
1000;SDS011;489;47.806;12.858;2023-05-29T12:55:44;3.77;;;3.47;;
1000;SDS011;489;47.806;12.858;2023-05-29T12:58:05;4.43;;;3.50;;